createdAt,value
2023-01-03T00:01:15.655Z,75.84
2023-01-03T00:04:02.055Z,76.16
2023-01-03T00:06:51.871Z,75.79
2023-01-03T00:09:37.095Z,75.83
2023-01-03T00:12:30.443Z,75.18
2023-01-03T00:15:16.575Z,74.79
2023-01-03T00:18:02.739Z,74.95
2023-01-03T00:20:49.176Z,76.08
2023-01-03T00:23:34.579Z,76.70
2023-01-03T00:26:20.180Z,77.49
2023-01-03T00:29:05.529Z,77.89
2023-01-03T00:31:52.027Z,77.56
2023-01-03T00:34:38.283Z,77.63
2023-01-03T00:37:23.852Z,77.00
2023-01-03T00:40:09.757Z,76.53
2023-01-03T00:43:13.747Z,76.29
2023-01-03T00:46:00.602Z,76.17
2023-01-03T00:48:47.239Z,75.78
2023-01-03T00:51:35.622Z,75.61
2023-01-03T00:54:22.041Z,75.46
2023-01-03T00:57:07.582Z,74.61
2023-01-03T00:59:52.859Z,74.65
2023-01-03T01:02:38.280Z,74.26
2023-01-03T01:05:24.448Z,74.67
2023-01-03T01:08:10.337Z,74.33
2023-01-03T01:11:04.761Z,74.38
2023-01-03T01:13:51.205Z,74.97
2023-01-03T01:16:36.324Z,74.89
2023-01-03T01:19:28.403Z,74.45
2023-01-03T01:22:13.965Z,74.68
2023-01-03T01:24:59.445Z,74.59
2023-01-03T01:27:44.777Z,74.46
2023-01-03T01:30:30.234Z,74.70
2023-01-03T01:33:15.677Z,74.10
2023-01-03T01:36:09.552Z,74.57
2023-01-03T01:39:00.843Z,74.13
2023-01-03T01:42:08.088Z,75.21
2023-01-03T01:44:58.606Z,78.79
2023-01-03T01:47:56.362Z,82.12
2023-01-03T01:50:46.740Z,83.75
2023-01-03T01:53:35.838Z,84.47
2023-01-03T01:56:29.764Z,84.42
2023-01-03T01:59:15.958Z,84.51
2023-01-03T02:02:01.475Z,84.03
2023-01-03T02:04:52.154Z,82.67
2023-01-03T02:07:38.328Z,81.02
2023-01-03T02:10:51.571Z,79.24
2023-01-03T02:14:07.346Z,77.69
2023-01-03T02:17:12.010Z,77.19
2023-01-03T02:20:18.966Z,77.13
2023-01-03T02:23:28.560Z,76.95
2023-01-03T02:26:23.250Z,77.20
2023-01-03T02:29:27.547Z,76.82
2023-01-03T02:32:43.210Z,75.73
2023-01-03T02:35:49.774Z,75.57
2023-01-03T02:38:38.081Z,75.47
2023-01-03T02:41:36.010Z,75.30
2023-01-03T02:44:36.845Z,75.81
2023-01-03T02:47:25.758Z,75.39
2023-01-03T02:50:14.134Z,75.41
2023-01-03T02:53:06.353Z,75.13
2023-01-03T02:55:55.083Z,75.04
2023-01-03T02:58:46.417Z,74.96
2023-01-03T03:01:36.008Z,74.79
2023-01-03T03:04:23.609Z,74.78
2023-01-03T03:07:23.546Z,75.77
2023-01-03T03:10:30.156Z,76.01
2023-01-03T03:13:29.871Z,76.61
2023-01-03T03:16:40.652Z,77.17
2023-01-03T03:19:51.260Z,77.41
2023-01-03T03:22:55.505Z,77.84
2023-01-03T03:26:07.297Z,78.80
2023-01-03T03:28:58.528Z,79.19
2023-01-03T03:31:48.066Z,80.09
2023-01-03T03:34:38.164Z,79.41
2023-01-03T03:37:31.035Z,79.49
2023-01-03T03:40:35.553Z,80.11
2023-01-03T03:43:51.164Z,80.69
2023-01-03T03:46:54.762Z,80.38
2023-01-03T03:49:45.227Z,80.52
2023-01-03T03:52:33.841Z,80.78
2023-01-03T03:55:25.104Z,81.17
2023-01-03T03:58:40.369Z,82.06
2023-01-03T04:01:27.784Z,81.25
2023-01-03T04:04:24.664Z,81.55
2023-01-03T04:07:09.956Z,82.19
2023-01-03T04:09:55.646Z,82.00
2023-01-03T04:12:41.402Z,82.13
2023-01-03T04:15:26.746Z,82.35
2023-01-03T04:18:12.255Z,82.88
2023-01-03T04:20:57.699Z,82.33
2023-01-03T04:23:43.582Z,82.54
2023-01-03T04:26:29.038Z,82.77
2023-01-03T04:29:14.639Z,83.23
2023-01-03T04:32:00.173Z,83.42
2023-01-03T04:34:45.515Z,83.02
2023-01-03T04:37:30.901Z,82.55
2023-01-03T04:40:16.800Z,82.26
2023-01-03T04:43:21.239Z,81.39
2023-01-03T04:46:07.172Z,80.80
2023-01-03T04:48:52.394Z,79.99
2023-01-03T04:51:37.834Z,79.59
2023-01-03T04:54:23.075Z,79.45
2023-01-03T04:57:08.706Z,78.70
2023-01-03T04:59:54.276Z,78.14
2023-01-03T05:02:39.842Z,78.10
2023-01-03T05:05:25.142Z,77.27
2023-01-03T05:08:13.212Z,76.74
2023-01-03T05:10:58.637Z,76.82
2023-01-03T05:13:44.142Z,76.00
2023-01-03T05:16:30.063Z,76.04
2023-01-03T05:19:15.687Z,75.62
2023-01-03T05:22:19.574Z,75.43
2023-01-03T05:25:28.570Z,75.03
2023-01-03T05:28:17.500Z,74.34
2023-01-03T05:31:03.667Z,74.53
2023-01-03T05:33:49.133Z,74.10
2023-01-03T05:36:34.557Z,74.54
2023-01-03T05:39:19.916Z,74.01
2023-01-03T05:42:05.832Z,74.22
2023-01-03T05:44:52.342Z,73.82
2023-01-03T05:47:37.995Z,73.51
2023-01-03T05:50:23.303Z,73.58
2023-01-03T05:53:15.333Z,73.62
2023-01-03T05:56:04.441Z,73.07
2023-01-03T05:58:49.802Z,73.23
2023-01-03T06:01:36.411Z,73.27
2023-01-03T06:04:22.405Z,72.89
2023-01-03T06:07:08.209Z,72.92
2023-01-03T06:09:53.631Z,72.78
2023-01-03T06:12:39.988Z,72.77
2023-01-03T06:15:25.692Z,72.78
2023-01-03T06:18:11.248Z,73.15
2023-01-03T06:20:56.530Z,73.51
2023-01-03T06:23:42.037Z,73.64
2023-01-03T06:26:27.457Z,73.48
2023-01-03T06:29:12.890Z,73.31
2023-01-03T06:32:01.150Z,73.29
2023-01-03T06:34:50.266Z,73.17
2023-01-03T06:37:35.604Z,73.13
2023-01-03T06:40:22.988Z,72.70
2023-01-03T06:43:08.964Z,72.87
2023-01-03T06:46:14.756Z,72.57
2023-01-03T06:49:19.074Z,72.62
2023-01-03T06:52:30.921Z,72.48
2023-01-03T06:55:16.942Z,72.21
2023-01-03T06:58:03.167Z,72.35
2023-01-03T07:00:48.923Z,72.06
2023-01-03T07:03:34.627Z,72.22
2023-01-03T07:06:19.895Z,71.88
2023-01-03T07:09:05.801Z,71.20
2023-01-03T07:11:51.427Z,71.45
2023-01-03T07:14:36.692Z,71.14
2023-01-03T07:17:22.095Z,70.85
2023-01-03T07:20:07.993Z,70.12
2023-01-03T07:22:53.388Z,70.10
2023-01-03T07:25:41.349Z,69.78
2023-01-03T07:28:27.082Z,69.51
2023-01-03T07:31:12.875Z,68.83
2023-01-03T07:33:59.369Z,69.27
2023-01-03T07:36:45.007Z,69.12
2023-01-03T07:39:30.341Z,68.64
2023-01-03T07:42:34.696Z,68.63
2023-01-03T07:45:19.926Z,68.59
2023-01-03T07:48:05.458Z,68.36
2023-01-03T07:50:50.786Z,67.84
2023-01-03T07:53:36.706Z,67.87
2023-01-03T07:56:25.137Z,68.66
2023-01-03T07:59:10.583Z,68.50
2023-01-03T08:01:56.619Z,68.86
2023-01-03T08:04:43.334Z,69.45
2023-01-03T08:07:29.065Z,69.32
2023-01-03T08:10:45.363Z,69.68
2023-01-03T08:13:31.142Z,69.88
2023-01-03T08:16:18.467Z,69.82
2023-01-03T08:19:04.127Z,70.21
2023-01-03T08:21:49.809Z,70.12
2023-01-03T08:24:35.342Z,70.36
2023-01-03T08:27:21.796Z,70.51
2023-01-03T08:30:07.721Z,70.59
2023-01-03T08:32:55.830Z,70.59
2023-01-03T08:35:49.251Z,71.11
2023-01-03T08:38:43.914Z,71.47
2023-01-03T08:41:33.060Z,71.68
2023-01-03T08:44:18.833Z,71.90
2023-01-03T08:47:08.256Z,72.00
2023-01-03T08:49:55.650Z,71.77
2023-01-03T08:52:41.316Z,72.21
2023-01-03T08:55:27.111Z,71.97
2023-01-03T08:58:12.295Z,72.17
2023-01-03T09:01:04.909Z,72.67
2023-01-03T09:03:50.991Z,72.11
2023-01-03T09:06:37.002Z,72.69
2023-01-03T09:09:22.385Z,72.76
2023-01-03T09:12:07.894Z,72.55
2023-01-03T09:14:53.252Z,72.89
2023-01-03T09:17:42.199Z,73.17
2023-01-03T09:20:27.736Z,73.18
2023-01-03T09:23:13.545Z,73.50
2023-01-03T09:25:59.312Z,73.53
2023-01-03T09:28:45.013Z,73.34
2023-01-03T09:31:34.959Z,72.94
2023-01-03T09:34:20.939Z,73.48
2023-01-03T09:37:06.753Z,73.17
2023-01-03T09:39:52.465Z,73.27
2023-01-03T09:42:56.886Z,73.16
2023-01-03T09:45:45.911Z,73.15
2023-01-03T09:48:40.905Z,73.21
2023-01-03T09:51:49.468Z,73.18
2023-01-03T09:54:58.441Z,73.07
2023-01-03T09:58:03.121Z,72.93
2023-01-03T10:01:12.762Z,72.62
2023-01-03T10:04:05.140Z,72.01
2023-01-03T10:07:25.293Z,72.00
2023-01-03T10:10:16.874Z,72.10
2023-01-03T10:13:26.091Z,71.77
2023-01-03T10:16:17.660Z,72.37
2023-01-03T10:19:27.622Z,71.56
2023-01-03T10:22:19.054Z,71.63
2023-01-03T10:25:04.327Z,71.38
2023-01-03T10:28:12.869Z,70.69
2023-01-03T10:31:10.637Z,71.44
2023-01-03T10:33:57.163Z,71.18
2023-01-03T10:36:42.820Z,71.47
2023-01-03T10:39:31.331Z,71.82
2023-01-03T10:42:19.655Z,71.91
2023-01-03T10:45:25.820Z,71.52
2023-01-03T10:48:14.191Z,71.54
2023-01-03T10:50:59.441Z,71.38
2023-01-03T10:53:44.941Z,71.49
2023-01-03T10:56:30.994Z,71.73
2023-01-03T10:59:23.341Z,71.66
2023-01-03T11:02:09.127Z,72.49
2023-01-03T11:05:12.669Z,72.18
2023-01-03T11:08:01.778Z,71.82
2023-01-03T11:10:57.187Z,71.40
2023-01-03T11:13:43.251Z,71.76
2023-01-03T11:16:32.104Z,71.76
2023-01-03T11:19:20.701Z,72.04
2023-01-03T11:22:37.686Z,71.67
2023-01-03T11:25:32.683Z,70.61
2023-01-03T11:28:48.153Z,69.60
2023-01-03T11:31:51.704Z,70.28
2023-01-03T11:35:24.396Z,70.55
2023-01-03T11:38:13.171Z,70.77
2023-01-03T11:41:16.830Z,70.64
2023-01-03T11:44:32.599Z,70.85
2023-01-03T11:47:30.268Z,70.70
2023-01-03T11:50:39.435Z,70.93
2023-01-03T11:53:43.413Z,70.99
2023-01-03T11:56:34.012Z,70.50
2023-01-03T11:59:34.822Z,70.37
2023-01-03T12:02:29.881Z,70.62
2023-01-03T12:05:30.592Z,70.48
2023-01-03T12:08:33.347Z,69.94
2023-01-03T12:11:29.308Z,69.86
2023-01-03T12:14:52.049Z,70.06
2023-01-03T12:17:41.059Z,69.65
2023-01-03T12:20:32.379Z,69.38
2023-01-03T12:23:21.138Z,68.94
2023-01-03T12:26:10.541Z,68.70
2023-01-03T12:29:06.021Z,69.38
2023-01-03T12:31:57.220Z,69.04
2023-01-03T12:35:08.112Z,68.94
2023-01-03T12:37:57.484Z,68.44
2023-01-03T12:40:55.777Z,68.17
2023-01-03T12:44:17.755Z,67.85
2023-01-03T12:47:05.697Z,68.11
2023-01-03T12:49:55.960Z,68.21
2023-01-03T12:52:43.277Z,68.44
2023-01-03T12:56:28.053Z,68.83
2023-01-03T13:00:05.181Z,68.02
2023-01-03T13:02:51.409Z,68.34
2023-01-03T13:05:43.260Z,68.69
2023-01-03T13:08:43.268Z,68.54
2023-01-03T13:11:42.435Z,68.59
2023-01-03T13:14:29.322Z,68.17
2023-01-03T13:17:19.356Z,68.42
2023-01-03T13:20:31.496Z,69.03
2023-01-03T13:23:34.142Z,68.75
2023-01-03T13:26:21.643Z,68.32
2023-01-03T13:29:35.172Z,68.69
2023-01-03T13:32:23.973Z,68.58
2023-01-03T13:35:15.369Z,68.59
2023-01-03T13:38:13.098Z,68.69
2023-01-03T13:41:17.822Z,68.75
2023-01-03T13:44:09.604Z,68.36
2023-01-03T13:46:56.765Z,68.80
2023-01-03T13:49:53.650Z,68.83
2023-01-03T13:53:12.390Z,68.71
2023-01-03T13:56:01.041Z,68.99
2023-01-03T13:58:50.512Z,69.43
2023-01-03T14:01:55.447Z,69.34
2023-01-03T14:04:50.354Z,69.18
2023-01-03T14:08:00.041Z,69.22
2023-01-03T14:11:09.315Z,69.42
2023-01-03T14:14:04.490Z,69.72
2023-01-03T14:16:53.010Z,69.98
2023-01-03T14:19:41.900Z,69.28
2023-01-03T14:22:41.344Z,69.83
2023-01-03T14:25:41.061Z,69.91
2023-01-03T14:28:33.798Z,70.09
2023-01-03T14:31:27.108Z,69.80
2023-01-03T14:34:28.858Z,69.70
2023-01-03T14:37:21.117Z,69.93
2023-01-03T14:40:18.586Z,69.93
2023-01-03T14:43:04.937Z,69.78
2023-01-03T14:45:57.307Z,70.19
2023-01-03T14:48:46.305Z,70.15
2023-01-03T14:51:34.473Z,70.42
2023-01-03T14:54:20.561Z,70.44
2023-01-03T14:57:05.720Z,70.40
2023-01-03T14:59:53.528Z,70.53
2023-01-03T15:02:41.162Z,70.46
2023-01-03T15:05:34.062Z,70.59
2023-01-03T15:08:26.081Z,70.83
2023-01-03T15:11:13.761Z,70.58
2023-01-03T15:14:03.331Z,70.12
2023-01-03T15:16:50.237Z,70.51
2023-01-03T15:19:39.292Z,70.39
2023-01-03T15:22:39.717Z,71.12
2023-01-03T15:25:38.969Z,71.92
2023-01-03T15:28:30.685Z,71.77
2023-01-03T15:31:30.783Z,69.27
2023-01-03T15:34:18.364Z,69.12
2023-01-03T15:37:21.842Z,68.62
2023-01-03T15:40:11.608Z,68.79
2023-01-03T15:43:21.706Z,69.17
2023-01-03T15:46:16.552Z,69.37
2023-01-03T15:49:03.182Z,70.11
2023-01-03T15:51:48.705Z,69.61
2023-01-03T15:54:35.132Z,69.69
2023-01-03T15:57:30.120Z,69.70
2023-01-03T16:00:20.184Z,69.79
2023-01-03T16:03:07.402Z,69.96
2023-01-03T16:05:54.157Z,69.99
2023-01-03T16:08:40.733Z,70.53
2023-01-03T16:11:33.787Z,70.40
2023-01-03T16:14:24.320Z,70.66
2023-01-03T16:17:22.609Z,70.74
2023-01-03T16:20:18.114Z,70.53
2023-01-03T16:23:03.751Z,70.64
2023-01-03T16:25:49.398Z,70.39
2023-01-03T16:28:35.119Z,69.96
2023-01-03T16:31:28.484Z,69.86
2023-01-03T16:34:19.687Z,69.81
2023-01-03T16:37:05.387Z,69.88
2023-01-03T16:39:51.066Z,69.79
2023-01-03T16:42:36.705Z,69.60
2023-01-03T16:45:22.777Z,69.35
2023-01-03T16:48:16.142Z,69.03
2023-01-03T16:51:01.926Z,69.09
2023-01-03T16:53:48.489Z,68.71
2023-01-03T16:56:33.753Z,68.60
2023-01-03T16:59:21.569Z,68.82
2023-01-03T17:02:07.562Z,68.40
2023-01-03T17:04:53.463Z,68.13
2023-01-03T17:07:39.994Z,68.46
2023-01-03T17:10:28.169Z,68.39
2023-01-03T17:13:26.263Z,68.64
2023-01-03T17:16:22.847Z,68.33
2023-01-03T17:20:01.195Z,68.46
2023-01-03T17:22:25.525Z,69.15
2023-01-03T17:25:11.589Z,68.85
2023-01-03T17:27:59.916Z,68.58
2023-01-03T17:30:45.186Z,68.13
2023-01-03T17:33:34.272Z,68.00
2023-01-03T17:36:30.689Z,67.68
2023-01-03T17:39:16.847Z,67.83
2023-01-03T17:42:17.756Z,67.46
2023-01-03T17:45:23.617Z,66.63
2023-01-03T17:48:32.207Z,66.60
2023-01-03T17:51:18.674Z,66.41
2023-01-03T17:54:04.441Z,66.28
2023-01-03T17:56:50.695Z,66.14
2023-01-03T17:59:36.429Z,66.51
2023-01-03T18:02:24.827Z,66.28
2023-01-03T18:05:17.679Z,66.26
2023-01-03T18:08:16.728Z,66.26
2023-01-03T18:11:02.461Z,66.28
2023-01-03T18:13:49.476Z,66.56
2023-01-03T18:16:34.683Z,66.79
2023-01-03T18:19:20.619Z,66.57
2023-01-03T18:22:06.015Z,66.21
2023-01-03T18:24:52.525Z,66.77
2023-01-03T18:27:38.085Z,66.93
2023-01-03T18:30:24.396Z,66.92
2023-01-03T18:33:10.067Z,67.08
2023-01-03T18:35:56.173Z,67.71
2023-01-03T18:38:41.732Z,67.88
2023-01-03T18:41:29.681Z,67.90
2023-01-03T18:44:23.253Z,67.98
2023-01-03T18:47:15.567Z,68.08
2023-01-03T18:50:01.293Z,68.65
2023-01-03T18:52:48.559Z,68.59
2023-01-03T18:55:35.484Z,68.55
2023-01-03T18:58:38.968Z,68.06
2023-01-03T19:01:25.060Z,68.81
2023-01-03T19:04:10.611Z,68.49
2023-01-03T19:06:56.417Z,69.01
2023-01-03T19:09:41.956Z,69.22
2023-01-03T19:12:27.521Z,69.13
2023-01-03T19:15:25.424Z,69.53
2023-01-03T19:18:11.889Z,69.69
2023-01-03T19:20:57.270Z,69.58
2023-01-03T19:23:44.913Z,69.52
2023-01-03T19:26:33.749Z,69.98
2023-01-03T19:29:23.695Z,69.86
2023-01-03T19:32:19.162Z,70.48
2023-01-03T19:35:14.613Z,70.79
2023-01-03T19:38:00.701Z,71.14
2023-01-03T19:40:47.024Z,71.25
2023-01-03T19:43:33.594Z,71.47
2023-01-03T19:46:19.430Z,71.34
2023-01-03T19:49:10.803Z,71.81
2023-01-03T19:51:57.176Z,71.72
2023-01-03T19:54:59.486Z,71.35
2023-01-03T19:57:50.678Z,71.30
2023-01-03T20:00:37.415Z,71.18
2023-01-03T20:03:39.580Z,70.93
2023-01-03T20:06:28.894Z,70.68
2023-01-03T20:09:15.090Z,70.76
2023-01-03T20:12:01.794Z,70.77
2023-01-03T20:14:51.112Z,70.21
2023-01-03T20:17:37.787Z,70.67
2023-01-03T20:20:33.264Z,70.49
2023-01-03T20:23:19.858Z,70.74
2023-01-03T20:26:06.016Z,70.15
2023-01-03T20:28:52.948Z,70.53
2023-01-03T20:31:39.806Z,70.71
2023-01-03T20:34:25.884Z,70.82
2023-01-03T20:37:17.892Z,70.24
2023-01-03T20:40:06.470Z,70.47
2023-01-03T20:42:53.144Z,70.35
2023-01-03T20:45:38.531Z,70.66
2023-01-03T20:48:26.190Z,70.60
2023-01-03T20:51:15.912Z,70.70
2023-01-03T20:54:03.120Z,70.82
2023-01-03T20:56:53.254Z,70.34
2023-01-03T20:59:39.958Z,70.74
2023-01-03T21:02:30.071Z,70.40
2023-01-03T21:05:17.749Z,70.36
2023-01-03T21:08:25.372Z,70.67
2023-01-03T21:11:12.803Z,70.07
2023-01-03T21:14:03.505Z,70.56
2023-01-03T21:16:54.686Z,70.23
2023-01-03T21:19:42.113Z,70.26
2023-01-03T21:22:28.636Z,69.91
2023-01-03T21:25:25.377Z,70.08
2023-01-03T21:28:14.609Z,70.35
2023-01-03T21:31:04.982Z,70.36
2023-01-03T21:33:51.807Z,69.82
2023-01-03T21:36:37.541Z,69.20
2023-01-03T21:39:23.969Z,69.10
2023-01-03T21:42:32.602Z,68.71
2023-01-03T21:45:18.033Z,68.84
2023-01-03T21:48:07.156Z,68.99
2023-01-03T21:50:53.292Z,68.96
2023-01-03T21:53:39.176Z,68.44
2023-01-03T21:56:25.865Z,69.21
2023-01-03T21:59:13.922Z,69.21
2023-01-03T22:02:19.381Z,69.74
2023-01-03T22:05:06.488Z,69.97
2023-01-03T22:07:53.829Z,70.13
2023-01-03T22:10:42.285Z,70.61
2023-01-03T22:13:29.287Z,70.74
2023-01-03T22:16:16.777Z,71.31
2023-01-03T22:19:03.755Z,71.04
2023-01-03T22:21:49.666Z,71.15
2023-01-03T22:24:36.066Z,71.21
2023-01-03T22:27:22.227Z,71.42
2023-01-03T22:30:11.628Z,71.34
2023-01-03T22:32:58.017Z,70.79
2023-01-03T22:35:44.420Z,71.08
2023-01-03T22:38:30.199Z,70.94
2023-01-03T22:41:17.719Z,71.20
2023-01-03T22:44:03.695Z,70.61
2023-01-03T22:46:49.477Z,70.42
2023-01-03T22:49:35.864Z,70.66
2023-01-03T22:52:21.323Z,70.57
2023-01-03T22:55:08.097Z,70.78
2023-01-03T22:57:54.193Z,70.49
2023-01-03T23:00:40.510Z,70.95
2023-01-03T23:03:25.861Z,70.67
2023-01-03T23:06:15.709Z,70.41
2023-01-03T23:09:02.466Z,70.71
2023-01-03T23:12:07.475Z,70.15
2023-01-03T23:14:52.814Z,70.13
2023-01-03T23:17:56.830Z,70.74
2023-01-03T23:20:48.793Z,70.37
2023-01-03T23:23:34.092Z,70.83
2023-01-03T23:26:19.534Z,70.70
2023-01-03T23:29:05.536Z,71.08
2023-01-03T23:31:52.848Z,70.94
2023-01-03T23:34:38.557Z,71.22
2023-01-03T23:37:23.906Z,71.08
2023-01-03T23:40:10.109Z,70.83
2023-01-03T23:42:55.944Z,70.79
2023-01-03T23:45:41.275Z,70.81
2023-01-03T23:48:26.692Z,70.60
2023-01-03T23:51:12.594Z,70.01
2023-01-03T23:53:57.970Z,70.15
2023-01-03T23:56:43.519Z,70.07
2023-01-03T23:59:28.645Z,69.85
